createdAt,value
2019-06-01T00:00:11.064Z,6.07
2019-06-01T00:04:05.584Z,10.97
2019-06-01T00:08:10.200Z,7.10
2019-06-01T00:12:14.872Z,7.23
2019-06-01T00:16:19.636Z,5.67
2019-06-01T00:20:24.234Z,6.93
2019-06-01T00:24:28.870Z,8.17
2019-06-01T00:28:33.492Z,7.73
2019-06-01T00:32:38.019Z,7.73
2019-06-01T00:36:43.509Z,9.53
2019-06-01T00:40:48.195Z,10.17
2019-06-01T00:44:52.818Z,9.17
2019-06-01T00:48:57.490Z,7.70
2019-06-01T00:53:02.259Z,8.20
2019-06-01T00:57:07.128Z,11.53
2019-06-01T01:01:12.588Z,8.20
2019-06-01T01:05:18.770Z,8.77
2019-06-01T01:09:23.355Z,6.70
2019-06-01T01:13:28.145Z,6.93
2019-06-01T01:17:32.651Z,7.43
2019-06-01T01:21:37.263Z,12.07
2019-06-01T01:25:41.778Z,9.73
2019-06-01T01:29:46.832Z,7.97
2019-06-01T01:33:51.449Z,9.00
2019-06-01T01:37:59.076Z,9.20
2019-06-01T01:42:03.606Z,13.28
2019-06-01T01:46:08.153Z,9.73
2019-06-01T01:50:12.756Z,11.07
2019-06-01T01:54:17.284Z,11.20
2019-06-01T01:58:21.791Z,9.43
2019-06-01T02:02:26.349Z,10.40
2019-06-01T02:06:30.875Z,8.23
2019-06-01T02:10:35.477Z,7.47
2019-06-01T02:14:40.606Z,8.07
2019-06-01T02:18:45.116Z,8.33
2019-06-01T02:22:49.644Z,7.63
2019-06-01T02:26:55.096Z,12.83
2019-06-01T02:31:00.015Z,10.93
2019-06-01T02:35:06.275Z,13.73
2019-06-01T02:39:12.568Z,9.87
2019-06-01T02:43:17.103Z,8.97
2019-06-01T02:47:21.625Z,8.63
2019-06-01T02:51:26.197Z,7.67
2019-06-01T02:55:30.728Z,11.60
2019-06-01T02:59:35.315Z,8.73
2019-06-01T03:03:41.324Z,11.50
2019-06-01T03:07:49.044Z,8.43
2019-06-01T03:11:58.878Z,9.75
2019-06-01T03:16:04.825Z,12.13
2019-06-01T03:20:09.692Z,11.97
2019-06-01T03:24:14.315Z,9.93
2019-06-01T03:28:22.239Z,11.10
2019-06-01T03:32:36.188Z,11.95
2019-06-01T03:36:32.795Z,14.23
2019-06-01T03:40:37.631Z,14.23
2019-06-01T03:44:42.246Z,12.93
2019-06-01T03:48:46.767Z,14.70
2019-06-01T03:52:51.299Z,14.10
2019-06-01T03:56:55.819Z,14.00
2019-06-01T04:01:00.910Z,14.77
2019-06-01T04:05:07.391Z,16.97
2019-06-01T04:09:11.979Z,15.60
2019-06-01T04:13:16.574Z,16.10
2019-06-01T04:17:21.119Z,13.63
2019-06-01T04:21:25.632Z,15.70
2019-06-01T04:25:31.935Z,18.87
2019-06-01T04:29:36.503Z,15.43
2019-06-01T04:33:41.098Z,14.47
2019-06-01T04:37:45.652Z,18.47
2019-06-01T04:41:50.248Z,12.93
2019-06-01T04:45:54.926Z,13.13
2019-06-01T04:49:59.451Z,14.77
2019-06-01T04:54:04.801Z,13.63
2019-06-01T04:58:09.514Z,15.40
2019-06-01T05:02:15.151Z,14.67
2019-06-01T05:06:19.842Z,11.00
2019-06-01T05:10:24.649Z,13.43
2019-06-01T05:14:29.298Z,11.57
2019-06-01T05:18:33.913Z,12.93
2019-06-01T05:22:38.568Z,8.43
2019-06-01T05:26:43.216Z,9.67
2019-06-01T05:30:47.745Z,11.37
2019-06-01T05:34:52.382Z,9.23
2019-06-01T05:38:56.900Z,8.67
2019-06-01T05:43:01.520Z,11.93
2019-06-01T05:47:06.163Z,9.13
2019-06-01T05:51:13.722Z,11.07
2019-06-01T05:55:17.093Z,10.57
2019-06-01T05:59:22.272Z,10.73
2019-06-01T06:03:40.028Z,9.90
2019-06-01T06:07:33.246Z,8.27
2019-06-01T06:11:37.768Z,12.20
2019-06-01T06:15:42.388Z,11.10
2019-06-01T06:19:46.892Z,9.00
2019-06-01T06:23:51.449Z,9.07
2019-06-01T06:27:56.204Z,10.37
2019-06-01T06:32:00.722Z,9.07
2019-06-01T06:36:05.296Z,9.83
2019-06-01T06:40:11.327Z,10.43
2019-06-01T06:44:16.404Z,8.57
2019-06-01T06:48:21.317Z,10.33
2019-06-01T06:52:26.130Z,11.37
2019-06-01T06:56:30.669Z,11.80
2019-06-01T07:00:35.385Z,12.43
2019-06-01T07:04:39.895Z,11.00
2019-06-01T07:08:44.508Z,13.80
2019-06-01T07:12:49.242Z,12.53
2019-06-01T07:16:53.885Z,9.20
2019-06-01T07:20:58.538Z,13.03
2019-06-01T07:25:04.079Z,9.70
2019-06-01T07:29:08.595Z,7.93
2019-06-01T07:33:13.250Z,9.33
2019-06-01T07:37:17.961Z,11.97
2019-06-01T07:41:22.605Z,10.80
2019-06-01T07:45:27.406Z,9.13
2019-06-01T07:49:31.938Z,12.97
2019-06-01T07:53:36.707Z,10.93
2019-06-01T07:57:43.587Z,7.03
2019-06-01T08:01:47.542Z,7.13
2019-06-01T08:05:52.187Z,6.37
2019-06-01T08:09:56.927Z,7.73
2019-06-01T08:14:01.623Z,8.20
2019-06-01T08:18:07.963Z,8.40
2019-06-01T08:22:12.515Z,8.40
2019-06-01T08:26:19.951Z,7.07
2019-06-01T08:30:24.397Z,7.37
2019-06-01T08:34:29.203Z,10.73
2019-06-01T08:38:33.924Z,6.27
2019-06-01T08:42:38.552Z,8.90
2019-06-01T08:46:43.112Z,5.73
2019-06-01T08:50:47.866Z,6.37
2019-06-01T08:54:52.402Z,7.53
2019-06-01T08:58:57.071Z,8.83
2019-06-01T09:03:01.624Z,6.60
2019-06-01T09:07:06.331Z,7.47
2019-06-01T09:11:11.085Z,5.40
2019-06-01T09:15:15.855Z,5.73
2019-06-01T09:19:20.501Z,7.33
2019-06-01T09:23:25.455Z,4.45
2019-06-01T09:27:30.265Z,3.20
2019-06-01T09:31:36.559Z,6.03
2019-06-01T09:35:54.446Z,4.97
2019-06-01T09:39:47.214Z,5.33
2019-06-01T09:43:51.886Z,4.40
2019-06-01T09:47:56.350Z,3.67
2019-06-01T09:52:01.221Z,5.27
2019-06-01T09:56:05.915Z,3.10
2019-06-01T10:00:12.532Z,4.83
2019-06-01T10:04:16.855Z,4.03
2019-06-01T10:08:21.396Z,3.33
2019-06-01T10:12:25.904Z,2.23
2019-06-01T10:16:30.463Z,5.92
2019-06-01T10:20:34.845Z,3.75
2019-06-01T10:24:39.347Z,3.40
2019-06-01T10:28:43.780Z,2.33
2019-06-01T10:32:48.312Z,5.00
2019-06-01T10:36:52.726Z,3.40
2019-06-01T10:40:57.269Z,3.87
2019-06-01T10:45:01.907Z,2.27
2019-06-01T10:49:06.362Z,2.87
2019-06-01T10:53:10.726Z,6.90
2019-06-01T10:57:15.123Z,4.47
2019-06-01T11:01:19.415Z,2.95
2019-06-01T11:05:23.752Z,4.42
2019-06-01T11:09:28.464Z,17.67
2019-06-01T11:13:33.076Z,3.62
2019-06-01T11:17:39.097Z,3.07
2019-06-01T11:21:43.897Z,2.37
2019-06-01T11:25:48.214Z,3.00
2019-06-01T11:29:52.464Z,4.87
2019-06-01T11:33:56.709Z,4.30
2019-06-01T11:38:01.339Z,5.97
2019-06-01T11:42:05.789Z,3.12
2019-06-01T11:46:10.232Z,2.98
2019-06-01T11:50:15.045Z,3.73
2019-06-01T11:54:19.347Z,3.17
2019-06-01T11:58:23.661Z,3.02
2019-06-01T12:02:28.051Z,4.12
2019-06-01T12:06:32.563Z,2.80
2019-06-01T12:10:37.124Z,4.30
2019-06-01T12:14:42.656Z,3.53
2019-06-01T12:18:47.247Z,2.22
2019-06-01T12:22:51.500Z,3.27
2019-06-01T12:26:55.975Z,3.20
2019-06-01T12:31:00.579Z,2.63
2019-06-01T12:35:09.089Z,3.80
2019-06-01T12:39:13.692Z,5.00
2019-06-01T12:43:18.127Z,4.00
2019-06-01T12:47:22.474Z,3.35
2019-06-01T12:51:26.733Z,2.02
2019-06-01T12:55:30.981Z,4.00
2019-06-01T12:59:35.579Z,3.50
2019-06-01T13:03:39.816Z,4.58
2019-06-01T13:07:57.432Z,4.72
2019-06-01T13:11:51.452Z,3.47
2019-06-01T13:15:55.895Z,3.83
2019-06-01T13:20:00.187Z,3.55
2019-06-01T13:24:04.686Z,2.25
2019-06-01T13:28:09.203Z,2.40
2019-06-01T13:32:13.833Z,2.63
2019-06-01T13:36:18.279Z,3.60
2019-06-01T13:40:23.902Z,2.05
2019-06-01T13:44:28.265Z,2.27
2019-06-01T13:48:32.904Z,6.20
2019-06-01T13:52:37.570Z,6.00
2019-06-01T13:56:42.252Z,3.80
2019-06-01T14:00:46.529Z,2.30
2019-06-01T14:04:52.042Z,1.65
2019-06-01T14:08:56.773Z,4.63
2019-06-01T14:13:04.939Z,1.85
2019-06-01T14:17:07.215Z,3.53
2019-06-01T14:21:11.835Z,1.77
2019-06-01T14:25:16.525Z,2.13
2019-06-01T14:29:20.792Z,5.47
2019-06-01T14:33:25.517Z,3.80
2019-06-01T14:37:29.772Z,5.67
2019-06-01T14:41:34.371Z,3.20
2019-06-01T14:45:38.658Z,2.10
2019-06-01T14:49:42.855Z,5.05
2019-06-01T14:53:47.491Z,3.27
2019-06-01T14:57:52.478Z,26.73
2019-06-01T15:01:58.295Z,4.83
2019-06-01T15:06:02.754Z,3.00
2019-06-01T15:10:09.231Z,5.27
2019-06-01T15:14:14.032Z,3.83
2019-06-01T15:18:18.556Z,3.25
2019-06-01T15:22:22.814Z,6.35
2019-06-01T15:26:27.499Z,3.90
2019-06-01T15:30:31.816Z,2.05
2019-06-01T15:34:36.058Z,2.22
2019-06-01T15:38:40.361Z,4.67
2019-06-01T15:42:44.651Z,5.75
2019-06-01T15:46:48.947Z,5.30
2019-06-01T15:50:54.131Z,3.00
2019-06-01T15:55:00.487Z,3.33
2019-06-01T15:59:05.268Z,3.40
2019-06-01T16:03:09.989Z,2.27
2019-06-01T16:07:14.704Z,5.03
2019-06-01T16:11:18.972Z,5.42
2019-06-01T16:15:23.423Z,3.27
2019-06-01T16:19:27.793Z,3.92
2019-06-01T16:23:48.703Z,2.87
2019-06-01T16:27:38.537Z,2.67
2019-06-01T16:31:43.386Z,3.00
2019-06-01T16:35:47.807Z,3.98
2019-06-01T16:40:01.748Z,3.23
2019-06-01T16:43:59.453Z,2.05
2019-06-01T16:48:04.115Z,4.35
2019-06-01T16:52:08.557Z,4.03
2019-06-01T16:56:12.810Z,4.10
2019-06-01T17:00:17.569Z,4.08
2019-06-01T17:04:22.295Z,2.73
2019-06-01T17:08:26.720Z,2.75
2019-06-01T17:12:31.271Z,6.03
2019-06-01T17:16:36.024Z,4.23
2019-06-01T17:20:49.932Z,1.97
2019-06-01T17:24:54.451Z,3.35
2019-06-01T17:28:59.812Z,11.65
2019-06-01T17:33:04.914Z,3.50
2019-06-01T17:37:09.292Z,6.08
2019-06-01T17:41:13.710Z,2.67
2019-06-01T17:45:18.338Z,2.93
2019-06-01T17:49:22.986Z,2.77
2019-06-01T17:53:27.328Z,4.08
2019-06-01T17:57:31.690Z,3.60
2019-06-01T18:01:36.095Z,4.37
2019-06-01T18:05:40.409Z,3.85
2019-06-01T18:09:44.704Z,2.12
2019-06-01T18:13:49.162Z,3.77
2019-06-01T18:17:53.484Z,2.83
2019-06-01T18:21:57.827Z,2.20
2019-06-01T18:26:02.616Z,3.23
2019-06-01T18:30:09.267Z,33.33
2019-06-01T18:34:13.796Z,8.87
2019-06-01T18:38:18.492Z,5.50
2019-06-01T18:42:26.143Z,5.23
2019-06-01T18:46:30.714Z,5.20
2019-06-01T18:50:36.103Z,5.33
2019-06-01T18:54:40.767Z,4.37
2019-06-01T18:58:45.389Z,4.60
2019-06-01T19:02:50.116Z,6.03
2019-06-01T19:06:54.696Z,4.30
2019-06-01T19:10:59.382Z,7.13
2019-06-01T19:15:22.036Z,8.83
2019-06-01T19:19:14.764Z,7.13
2019-06-01T19:23:21.869Z,8.83
2019-06-01T19:27:25.793Z,11.10
2019-06-01T19:31:30.432Z,9.90
2019-06-01T19:35:35.353Z,8.60
2019-06-01T19:39:40.524Z,4.50
2019-06-01T19:43:45.261Z,7.07
2019-06-01T19:47:49.917Z,6.40
2019-06-01T19:51:54.533Z,7.73
2019-06-01T19:55:59.175Z,8.47
2019-06-01T20:00:06.397Z,8.57
2019-06-01T20:04:10.976Z,4.65
2019-06-01T20:08:16.223Z,6.20
2019-06-01T20:12:20.920Z,7.47
2019-06-01T20:16:25.464Z,10.73
2019-06-01T20:20:30.284Z,10.77
2019-06-01T20:24:34.854Z,9.10
2019-06-01T20:28:39.442Z,4.67
2019-06-01T20:32:44.170Z,11.50
2019-06-01T20:36:48.829Z,4.83
2019-06-01T20:40:53.547Z,6.37
2019-06-01T20:44:58.111Z,5.63
2019-06-01T20:49:02.697Z,5.20
2019-06-01T20:53:07.474Z,6.10
2019-06-01T20:57:13.324Z,5.83
2019-06-01T21:01:18.008Z,6.23
2019-06-01T21:05:23.846Z,5.93
2019-06-01T21:09:28.752Z,8.40
2019-06-01T21:13:33.396Z,8.57
2019-06-01T21:17:38.007Z,7.20
2019-06-01T21:21:42.650Z,8.03
2019-06-01T21:25:47.248Z,5.13
2019-06-01T21:29:51.926Z,4.77
2019-06-01T21:33:56.521Z,5.87
2019-06-01T21:38:01.085Z,7.50
2019-06-01T21:42:05.780Z,7.83
2019-06-01T21:46:10.347Z,7.03
2019-06-01T21:50:18.197Z,4.87
2019-06-01T21:58:26.732Z,6.42
2019-06-01T22:02:31.303Z,6.90
2019-06-01T22:06:35.857Z,6.97
2019-06-01T22:10:40.397Z,6.73
2019-06-01T22:14:44.957Z,8.17
2019-06-01T22:18:49.526Z,5.03
2019-06-01T22:22:54.129Z,8.30
2019-06-01T22:26:58.701Z,5.03
2019-06-01T22:31:03.255Z,6.90
2019-06-01T22:35:07.940Z,11.37
2019-06-01T22:39:12.603Z,6.33
2019-06-01T22:43:17.065Z,9.67
2019-06-01T22:47:22.484Z,6.63
2019-06-01T22:51:27.259Z,6.97
2019-06-01T22:55:32.587Z,11.23
2019-06-01T22:59:37.201Z,8.37
2019-06-01T23:03:41.740Z,9.13
2019-06-01T23:07:46.337Z,5.60
2019-06-01T23:11:50.878Z,8.07
2019-06-01T23:15:55.590Z,8.10
2019-06-01T23:20:00.305Z,7.77
2019-06-01T23:24:04.905Z,6.00
2019-06-01T23:28:09.433Z,5.47
2019-06-01T23:32:13.991Z,6.90
2019-06-01T23:36:18.794Z,8.87
2019-06-01T23:40:24.421Z,5.70
2019-06-01T23:44:31.921Z,8.53
2019-06-01T23:48:35.514Z,7.40
2019-06-01T23:52:40.185Z,9.27
2019-06-01T23:56:44.861Z,8.33
